Latest Weather Observations for Learmonth

IDW60801

Issued at 12:32 pm WST Tuesday 3 March 2015 (issued every 30 minutes, with the page automatically refreshed every 10 minutes)

About weather observations | Map of weather stations | Latest weather observations for WA | Other Formats
Station Details ID: 005007 Name: LEARMONTH AIRPORT Lat: -22.24 Lon: 114.10 Height: 5.0 m
Data from the previous 72 hours. | See also: Recent months at Learmonth
Date/Time
WST
Temp
°C
App
Temp
°C
Dew
Point
Rel
Hum
%
Delta-T
°C
Wind Press
QNH
hPa
Press
MSL
hPa
Rain
since 9 am
mm
Dir
 
Spd
km/h
Gust
km/h
Spd
kts
Gust
kts
03/12:30pm 32.2 33.3 21.9 54 7.0 ENE 19 24 10 13 1007.2 - 0.0
03/12:00pm 31.6 32.7 22.4 58 6.3 ENE 20 24 11 13 1007.6 1007.5 0.0
03/11:30am 32.0 33.5 22.0 55 6.8 ENE 17 24 9 13 1007.8 - 0.0
03/11:00am 32.1 33.6 22.0 55 6.9 ENE 17 24 9 13 1008.1 - 0.0
03/10:30am 33.0 35.3 19.5 45 8.9 W 6 15 3 8 1008.2 - 0.0
03/10:00am 31.7 33.9 19.7 49 7.9 SSW 7 17 4 9 1008.4 - 0.0
03/09:30am 30.9 33.3 20.9 55 6.7 WNW 9 17 5 9 1008.6 - 0.0
03/09:00am 30.3 32.3 20.7 56 6.4 SSW 11 17 6 9 1008.6 1008.5 0.0
03/08:30am 29.1 30.6 20.5 59 5.7 WSW 13 17 7 9 1008.4 - 0.0
03/08:00am 28.1 29.0 20.9 65 4.8 WSW 17 19 9 10 1008.4 - 0.0
03/07:30am 26.8 28.9 20.9 70 3.9 WSW 11 17 6 9 1008.4 - 0.0
03/07:00am 25.5 28.2 21.3 77 2.8 WSW 9 11 5 6 1008.3 - 0.0
03/06:30am 24.7 26.9 21.1 80 2.4 WSW 11 13 6 7 1007.9 - 0.0
03/06:00am 24.5 26.2 21.0 81 2.3 WSW 13 15 7 8 1007.5 1007.4 0.0
03/05:30am 24.5 26.5 20.8 80 2.4 WSW 11 11 6 6 1007.3 - 0.0
03/05:00am 24.8 26.8 20.8 78 2.6 WSW 11 17 6 9 1007.1 - 0.0
03/04:30am 24.7 26.5 20.4 77 2.8 WSW 11 15 6 8 1006.9 - 0.0
03/04:00am 24.5 26.7 20.4 78 2.7 WSW 9 11 5 6 1006.9 - 0.0
03/03:30am 24.7 26.7 20.7 78 2.6 WSW 11 13 6 7 1006.8 - 0.0
03/03:00am 24.8 25.7 20.8 78 2.6 W 17 22 9 12 1006.8 1006.7 0.0
03/02:30am 23.7 26.0 20.6 83 2.0 SW 9 15 5 8 1007.1 - 0.0
03/02:00am 23.9 25.9 20.7 82 2.1 S 11 13 6 7 1007.3 - 0.0
03/01:30am 24.9 26.1 20.6 77 2.8 SW 15 19 8 10 1007.2 - 0.0
03/01:00am 25.2 25.9 20.5 75 3.1 WSW 17 20 9 11 1007.2 - 0.0
03/12:30am 25.4 26.1 20.5 74 3.2 WSW 17 22 9 12 1007.3 - 0.0
03/12:00am 25.5 25.8 20.5 74 3.3 WSW 19 28 10 15 1007.5 1007.4 0.0
 
Date/Time
WST
Temp
°C
App
Temp
°C
Dew
Point
Rel
Hum
%
Delta-T
°C
Wind Press
QNH
hPa
Press
MSL
hPa
Rain
since 9 am
mm
Dir
 
Spd
km/h
Gust
km/h
Spd
kts
Gust
kts
02/11:30pm 25.6 26.0 20.7 74 3.2 WSW 19 24 10 13 1007.7 - 0.0
02/11:00pm 25.6 25.8 20.6 74 3.3 SW 20 28 11 15 1007.8 - 0.0
02/10:30pm 25.8 25.5 20.3 71 3.6 WSW 22 30 12 16 1007.5 - 0.0
02/10:00pm 25.9 25.3 20.4 71 3.6 WSW 24 33 13 18 1007.5 - 0.0
02/09:30pm 26.0 24.2 20.3 71 3.7 WSW 30 37 16 20 1007.5 - 0.0
02/09:00pm 26.2 24.5 19.9 68 4.1 WSW 28 35 15 19 1007.4 1007.3 0.0
02/08:30pm 26.3 25.7 19.8 67 4.2 WSW 22 30 12 16 1007.3 - 0.0
02/08:00pm 26.5 25.8 19.6 66 4.5 WSW 22 30 12 16 1007.1 - 0.0
02/07:30pm 26.8 25.4 18.7 61 5.2 WSW 24 33 13 18 1006.6 - 0.0
02/07:00pm 27.2 25.4 18.8 60 5.4 WSW 26 32 14 17 1006.1 - 0.0
02/06:30pm 28.3 26.0 17.6 52 6.8 W 26 33 14 18 1005.5 - 0.0
02/06:00pm 29.5 26.9 17.9 49 7.4 WSW 28 35 15 19 1005.1 1005.0 0.0
02/05:30pm 30.0 26.9 17.6 47 7.9 WSW 30 39 16 21 1004.9 - 0.0
02/05:00pm 30.8 27.4 17.7 45 8.4 W 32 41 17 22 1004.7 - 0.0
02/04:30pm 32.3 29.0 16.9 39 9.8 W 30 39 16 21 1004.4 - 0.0
02/04:00pm 33.6 31.0 16.0 34 11.1 WSW 24 39 13 21 1004.4 - 0.0
02/03:30pm 32.8 34.7 20.6 48 8.2 NW 11 17 6 9 1004.6 - 0.0
02/03:00pm 31.2 31.8 20.2 52 7.3 NE 17 20 9 11 1004.7 1004.6 0.0
02/02:30pm 29.6 29.7 20.4 57 6.1 NNE 20 28 11 15 1005.3 - 0.0
02/02:00pm 29.2 29.6 20.9 61 5.5 NNE 20 28 11 15 1005.7 - 0.0
02/01:30pm 29.4 30.3 19.3 54 6.6 NNE 13 19 7 10 1006.2 - 0.0
02/01:00pm 29.3 30.7 20.4 58 5.9 ENE 13 17 7 9 1006.4 - 0.0
02/12:30pm 29.1 29.3 20.5 59 5.7 ENE 20 26 11 14 1006.7 - 0.0
02/12:00pm 29.4 29.1 20.3 58 6.0 E 22 28 12 15 1006.9 1006.8 0.0
02/11:30am 29.7 31.2 20.5 57 6.1 E 13 20 7 11 1007.3 - 0.0
02/11:00am 30.5 30.8 17.8 46 8.1 SW 13 24 7 13 1007.6 - 0.0
02/10:30am 30.2 29.8 18.0 48 7.8 WSW 17 28 9 15 1007.8 - 0.0
02/10:00am 29.7 30.1 18.9 52 7.0 SW 15 24 8 13 1008.0 - 0.0
02/09:30am 29.2 29.6 19.0 54 6.6 SSW 15 26 8 14 1008.1 - 0.0
02/09:00am 27.9 28.3 19.8 61 5.3 SW 17 24 9 13 1008.1 1008.0 0.0
02/08:30am 27.6 29.3 20.1 63 4.9 SW 11 19 6 10 1008.0 - 0.0
02/08:00am 26.2 27.6 20.4 70 3.8 WSW 13 19 7 10 1007.9 - 0.0
02/07:30am 24.9 27.1 21.1 79 2.5 SW 11 15 6 8 1007.9 - 0.0
02/07:00am 23.7 26.2 21.1 85 1.7 SSW 9 13 5 7 1007.5 - 0.0
02/06:30am 22.8 25.2 20.8 88 1.3 SW 9 11 5 6 1007.5 - 0.0
02/06:00am 23.0 25.4 20.9 88 1.4 SSW 9 11 5 6 1007.3 1007.2 0.0
02/05:30am 23.2 25.6 20.9 87 1.5 SSW 9 11 5 6 1007.1 - 0.0
02/05:00am 23.4 25.1 21.0 86 1.6 SSW 13 15 7 8 1007.0 - 0.0
02/04:30am 23.8 25.5 20.9 84 1.9 SSW 13 17 7 9 1007.0 - 0.0
02/04:00am 24.1 25.5 21.1 83 2.0 SSW 15 19 8 10 1007.0 - 0.0
02/03:30am 24.0 26.2 21.1 84 1.9 SSW 11 15 6 8 1007.1 - 0.0
02/03:00am 24.1 26.3 21.1 83 2.0 SSW 11 13 6 7 1007.1 1007.0 0.0
02/02:30am 24.3 26.0 21.0 82 2.2 SSW 13 17 7 9 1007.2 - 0.0
02/02:00am 24.5 26.2 21.0 81 2.3 SSW 13 17 7 9 1007.4 - 0.0
02/01:30am 24.9 26.7 21.1 79 2.5 SSW 13 19 7 10 1007.4 - 0.0
02/01:00am 25.1 27.1 21.5 80 2.4 SSW 13 17 7 9 1007.7 - 0.0
02/12:30am 25.2 26.5 21.6 80 2.4 SSW 17 20 9 11 1007.6 - 0.0
02/12:00am 25.5 26.0 20.9 75 3.0 SSW 19 22 10 12 1007.6 1007.5 0.0
 
Date/Time
WST
Temp
°C
App
Temp
°C
Dew
Point
Rel
Hum
%
Delta-T
°C
Wind Press
QNH
hPa
Press
MSL
hPa
Rain
since 9 am
mm
Dir
 
Spd
km/h
Gust
km/h
Spd
kts
Gust
kts
01/11:30pm 25.8 26.2 20.6 73 3.4 SW 19 24 10 13 1007.8 - 0.0
01/11:00pm 25.9 25.3 20.6 72 3.5 SW 24 32 13 17 1007.9 - 0.0
01/10:30pm 26.1 26.4 20.8 72 3.5 SW 20 30 11 16 1007.9 - 0.0
01/10:00pm 26.1 25.7 21.0 73 3.4 SW 24 32 13 17 1007.9 - 0.0
01/09:30pm 26.2 26.3 21.1 73 3.4 WSW 22 30 12 16 1007.7 - 0.0
01/09:00pm 26.4 26.4 21.0 72 3.6 WSW 22 32 12 17 1007.4 1007.3 0.0
01/08:30pm 26.6 25.6 20.5 69 4.0 WSW 26 33 14 18 1007.1 - 0.0
01/08:00pm 26.9 26.1 20.0 66 4.5 WSW 24 32 13 17 1006.7 - 0.0
01/07:30pm 27.2 26.1 20.2 65 4.6 WSW 26 33 14 18 1006.2 - 0.0
01/07:00pm 27.7 27.0 20.2 63 4.9 WSW 24 32 13 17 1005.7 - 0.0
01/06:30pm 28.4 26.7 19.8 59 5.6 W 28 33 15 18 1005.5 - 0.0
01/06:00pm 29.5 27.9 20.1 57 6.2 WSW 28 35 15 19 1005.2 1005.1 0.0
01/05:30pm 29.9 28.8 20.2 56 6.4 WSW 26 35 14 19 1005.0 - 0.0
01/05:00pm 30.7 29.4 19.9 52 7.1 WSW 26 35 14 19 1005.0 - 0.0
01/04:30pm 31.3 30.1 20.1 51 7.4 W 26 33 14 18 1005.1 - 0.0
01/04:00pm 31.6 30.8 20.1 50 7.6 W 24 32 13 17 1005.2 - 0.0
01/03:30pm 31.9 30.4 20.3 50 7.7 W 28 41 15 22 1005.4 - 0.0
01/03:00pm 32.4 31.9 19.9 47 8.3 W 22 33 12 18 1005.5 1005.4 0.0
01/02:30pm 32.0 30.4 20.1 49 7.9 W 28 39 15 21 1005.8 - 0.0
01/02:00pm 33.2 32.0 19.2 43 9.2 W 24 33 13 18 1006.1 - 0.0
01/01:30pm 33.2 32.6 19.8 45 8.9 W 22 35 12 19 1006.3 - 0.0
01/01:00pm 32.9 32.2 19.6 45 8.8 W 22 30 12 16 1006.7 - 0.0
01/12:30pm 32.4 32.1 19.5 46 8.5 W 20 28 11 15 1007.0 - 0.0
01/12:00pm 32.3 32.2 19.9 48 8.2 W 20 32 11 17 1007.4 1007.3 0.0
01/11:30am 31.5 31.0 20.0 50 7.6 W 22 30 12 16 1007.6 - 0.0
01/11:00am 31.2 30.5 20.2 52 7.3 WSW 24 32 13 17 1007.7 - 0.0
01/10:30am 30.7 29.6 20.3 53 6.9 W 26 37 14 20 1007.8 - 0.0
01/10:00am 30.8 29.8 20.4 54 6.9 W 26 37 14 20 1008.1 - 0.0
01/09:30am 29.4 28.6 20.1 57 6.1 WSW 24 32 13 17 1008.3 - 0.0
01/09:00am 28.8 28.2 20.5 61 5.5 W 24 33 13 18 1008.1 1008.0 0.0
01/08:30am 27.7 26.5 20.9 66 4.5 WSW 28 35 15 19 1007.8 - 0.0
01/08:00am 27.5 27.3 21.3 69 4.1 WSW 24 30 13 16 1007.6 - 0.0
01/07:30am 26.3 27.5 22.1 77 2.8 WSW 19 24 10 13 1007.6 - 0.0
01/07:00am 25.8 27.0 22.2 80 2.4 SW 19 26 10 14 1007.3 - 0.0
01/06:30am 25.4 27.3 22.1 82 2.2 SW 15 22 8 12 1007.0 - 0.0
01/06:00am 25.1 26.3 22.1 83 2.0 WSW 19 26 10 14 1006.5 1006.4 0.0
01/05:30am 25.0 26.1 21.9 83 2.1 WSW 19 24 10 13 1006.3 - 0.0
01/05:00am 25.0 25.9 22.0 83 2.0 W 20 26 11 14 1006.1 - 0.0
01/04:30am 25.1 26.3 21.5 80 2.4 WSW 17 20 9 11 1006.0 - 0.0
01/04:00am 25.3 26.8 21.2 78 2.7 SW 15 20 8 11 1005.9 - 0.0
01/03:30am 25.4 26.1 21.2 77 2.8 WSW 19 22 10 12 1005.8 - 0.0
01/03:00am 25.5 26.1 21.3 77 2.8 WSW 20 28 11 15 1005.8 1005.7 0.0
01/02:30am 25.3 25.8 21.1 77 2.8 WSW 20 26 11 14 1005.9 - 0.0
01/02:00am 25.3 25.9 21.4 79 2.6 WSW 20 26 11 14 1006.3 - 0.0
01/01:30am 25.4 26.1 21.5 79 2.6 WSW 20 28 11 15 1006.4 - 0.0
01/01:00am 25.8 26.0 21.3 76 3.0 WSW 22 30 12 16 1006.5 - 0.0
01/12:30am 26.1 26.6 20.8 72 3.5 SW 19 26 10 14 1006.5 - 0.0
01/12:00am 26.2 26.7 20.1 69 4.0 WSW 17 22 9 12 1006.7 1006.6 0.0
 
Date/Time
WST
Temp
°C
App
Temp
°C
Dew
Point
Rel
Hum
%
Delta-T
°C
Wind Press
QNH
hPa
Press
MSL
hPa
Rain
since 9 am
mm
Dir
 
Spd
km/h
Gust
km/h
Spd
kts
Gust
kts
28/11:30pm 26.1 27.1 20.3 70 3.8 SW 15 19 8 10 1007.3 - 0.0
28/11:00pm 26.1 27.3 20.0 69 4.0 SW 13 20 7 11 1007.7 - 0.0
28/10:30pm 26.1 26.0 20.0 69 4.0 SW 20 24 11 13 1008.0 - 0.0
28/10:00pm 26.1 25.8 20.3 70 3.8 SW 22 32 12 17 1008.1 - 0.0
28/09:30pm 26.3 25.6 20.2 69 4.0 SW 24 39 13 21 1007.7 - 0.0
28/09:00pm 26.5 25.5 20.4 69 4.0 SW 26 35 14 19 1007.3 1007.2 0.0
28/08:30pm 26.5 25.2 20.7 70 3.8 SW 28 35 15 19 1007.0 - 0.0
28/08:00pm 26.6 24.4 20.3 68 4.1 WSW 32 39 17 21 1006.5 - 0.0
28/07:30pm 26.9 25.1 20.4 67 4.3 WSW 30 37 16 20 1006.1 - 0.0
28/07:00pm 27.2 25.1 19.7 63 4.9 WSW 30 44 16 24 1005.4 - 0.0
28/06:30pm 28.1 24.8 19.3 58 5.7 WSW 35 46 19 25 1005.1 - 0.0
28/06:00pm 29.2 25.9 19.2 54 6.5 W 35 46 19 25 1004.7 1004.6 0.0
28/05:30pm 30.8 27.0 18.1 46 8.2 W 35 43 19 23 1004.4 - 0.0
28/05:00pm 31.8 27.9 17.8 43 9.0 W 35 43 19 23 1004.5 - 0.0
28/04:30pm 32.3 29.1 18.1 42 9.2 W 32 39 17 21 1004.5 - 0.0
28/04:00pm 33.5 30.8 18.5 41 9.8 W 30 37 16 20 1004.8 - 0.0
28/03:30pm 33.5 30.5 17.7 39 10.2 W 30 39 16 21 1005.0 - 0.0
28/03:00pm 33.5 29.7 18.1 40 10.0 W 35 43 19 23 1005.2 1005.1 0.0
28/02:30pm 33.5 30.8 19.6 44 9.2 W 33 44 18 24 1005.4 - 0.0
28/02:00pm 33.9 31.4 20.1 44 9.2 W 33 44 18 24 1005.7 - 0.0
28/01:30pm 35.3 32.8 20.1 41 10.2 W 33 46 18 25 1005.8 - 0.0
28/01:17pm 35.5 34.0 20.3 41 10.2 W 28 39 15 21 1005.8 - 0.0
28/01:00pm 33.9 34.2 18.8 41 9.9 NNE 15 19 8 10 1006.0 - 0.0

Other Formats:

Comma delimited format used in spreadsheet applications
http://www.bom.gov.au/fwo/IDW60801/IDW60801.94302.axf

JavaScript Object Notation format (JSON) in row-major order
http://www.bom.gov.au/fwo/IDW60801/IDW60801.94302.json